createdAt,value
2022-10-05T00:00:06.096Z,1015.36
2022-10-05T00:00:15.532Z,1015.46
2022-10-05T00:00:24.943Z,1015.45
2022-10-05T00:00:34.364Z,1015.44
2022-10-05T00:00:43.829Z,1015.48
2022-10-05T00:00:53.239Z,1015.50
2022-10-05T00:01:02.656Z,1015.48
2022-10-05T00:01:12.122Z,1015.48
2022-10-05T00:01:21.638Z,1015.46
2022-10-05T00:01:31.068Z,1015.45
2022-10-05T00:01:40.510Z,1015.41
2022-10-05T00:01:49.857Z,1015.47
2022-10-05T00:01:59.312Z,1015.45
2022-10-05T00:02:08.753Z,1015.42
2022-10-05T00:02:18.067Z,1015.38
2022-10-05T00:02:27.484Z,1015.40
2022-10-05T00:02:36.935Z,1015.42
2022-10-05T00:02:46.355Z,1015.35
2022-10-05T00:03:05.193Z,1015.40
2022-10-05T00:03:14.598Z,1015.39
2022-10-05T00:03:24.003Z,1015.34
2022-10-05T00:03:33.448Z,1015.40
2022-10-05T00:03:42.858Z,1015.37
2022-10-05T00:03:52.298Z,1015.36
2022-10-05T00:04:01.726Z,1015.39
2022-10-05T00:04:11.177Z,1015.37
2022-10-05T00:04:20.482Z,1015.41
2022-10-05T00:04:29.883Z,1015.34
2022-10-05T00:04:39.431Z,1015.40
2022-10-05T00:04:48.782Z,1015.38
2022-10-05T00:04:58.189Z,1015.39
2022-10-05T00:05:07.613Z,1015.38
2022-10-05T00:05:17.068Z,1015.40
2022-10-05T00:05:26.485Z,1015.40
2022-10-05T00:05:45.238Z,1015.37
2022-10-05T00:05:54.660Z,1015.40
2022-10-05T00:06:04.055Z,1015.52
2022-10-05T00:06:13.485Z,1015.45
2022-10-05T00:06:22.896Z,1015.47
2022-10-05T00:06:32.304Z,1015.50
2022-10-05T00:06:41.710Z,1015.48
2022-10-05T00:06:51.131Z,1015.43
2022-10-05T00:07:00.554Z,1015.45
2022-10-05T00:07:09.978Z,1015.47
2022-10-05T00:07:19.390Z,1015.37
2022-10-05T00:07:28.799Z,1015.42
2022-10-05T00:07:38.223Z,1015.36
2022-10-05T00:07:47.649Z,1015.42
2022-10-05T00:07:57.096Z,1015.40
2022-10-05T00:08:06.492Z,1015.34
2022-10-05T00:08:25.315Z,1015.42
2022-10-05T00:08:34.736Z,1015.41
2022-10-05T00:08:44.243Z,1015.42
2022-10-05T00:08:53.715Z,1015.40
2022-10-05T00:09:03.188Z,1015.44
2022-10-05T00:09:12.660Z,1015.50
2022-10-05T00:09:22.109Z,1015.44
2022-10-05T00:09:31.562Z,1015.43
2022-10-05T00:09:40.958Z,1015.53
2022-10-05T00:09:50.375Z,1015.47
2022-10-05T00:09:59.813Z,1015.44
2022-10-05T00:10:09.270Z,1015.43
2022-10-05T00:10:18.752Z,1015.44
2022-10-05T00:10:28.320Z,1015.50
2022-10-05T00:10:37.741Z,1015.46
2022-10-05T00:10:47.173Z,1015.44
2022-10-05T00:10:56.656Z,1015.40
2022-10-05T00:11:15.511Z,1015.38
2022-10-05T00:11:24.931Z,1015.41
2022-10-05T00:11:34.431Z,1015.41
2022-10-05T00:11:43.869Z,1015.41
2022-10-05T00:11:53.299Z,1015.40
2022-10-05T00:12:02.744Z,1015.47
2022-10-05T00:12:12.163Z,1015.41
2022-10-05T00:12:21.659Z,1015.42
2022-10-05T00:12:31.077Z,1015.42
2022-10-05T00:12:40.526Z,1015.47
2022-10-05T00:12:49.957Z,1015.46
2022-10-05T00:12:59.381Z,1015.45
2022-10-05T00:13:08.795Z,1015.42
2022-10-05T00:13:18.210Z,1015.41
2022-10-05T00:13:27.654Z,1015.41
2022-10-05T00:13:37.075Z,1015.36
2022-10-05T00:13:46.486Z,1015.40
2022-10-05T00:14:05.400Z,1015.43
2022-10-05T00:14:14.848Z,1015.44
2022-10-05T00:14:24.288Z,1015.44
2022-10-05T00:14:33.685Z,1015.39
2022-10-05T00:14:43.269Z,1015.44
2022-10-05T00:14:52.719Z,1015.45
2022-10-05T00:15:02.182Z,1015.35
2022-10-05T00:15:11.527Z,1015.43
2022-10-05T00:15:20.923Z,1015.37
2022-10-05T00:15:30.334Z,1015.39
2022-10-05T00:15:39.739Z,1015.42
2022-10-05T00:15:49.145Z,1015.43
2022-10-05T00:15:58.634Z,1015.42
2022-10-05T00:16:08.126Z,1015.42
2022-10-05T00:16:17.514Z,1015.36
2022-10-05T00:16:27.030Z,1015.42
2022-10-05T00:16:36.397Z,1015.37
2022-10-05T00:16:55.294Z,1015.40
2022-10-05T00:17:04.764Z,1015.36
2022-10-05T00:17:14.067Z,1015.39
2022-10-05T00:17:23.486Z,1015.39
2022-10-05T00:17:32.924Z,1015.41
2022-10-05T00:17:42.370Z,1015.30
2022-10-05T00:17:51.810Z,1015.43
2022-10-05T00:18:01.212Z,1015.36
2022-10-05T00:18:10.621Z,1015.38
2022-10-05T00:18:20.044Z,1015.40
2022-10-05T00:18:29.505Z,1015.34
2022-10-05T00:18:38.925Z,1015.37
2022-10-05T00:18:48.313Z,1015.43
2022-10-05T00:18:57.727Z,1015.39
2022-10-05T00:19:07.117Z,1015.41
2022-10-05T00:19:16.536Z,1015.39
2022-10-05T00:19:35.329Z,1015.38
2022-10-05T00:19:44.745Z,1015.38
2022-10-05T00:19:54.181Z,1015.37
2022-10-05T00:20:03.571Z,1015.28
2022-10-05T00:20:12.992Z,1015.32
2022-10-05T00:20:22.397Z,1015.37
2022-10-05T00:20:31.787Z,1015.38
2022-10-05T00:20:41.192Z,1015.36
2022-10-05T00:20:50.611Z,1015.35
2022-10-05T00:21:00.027Z,1015.36
2022-10-05T00:21:09.427Z,1015.33
2022-10-05T00:21:18.838Z,1015.26
2022-10-05T00:21:28.253Z,1015.28
2022-10-05T00:21:37.641Z,1015.29
2022-10-05T00:21:47.033Z,1015.28
2022-10-05T00:21:56.441Z,1015.28
2022-10-05T00:22:15.254Z,1015.21
2022-10-05T00:22:24.650Z,1015.24
2022-10-05T00:22:34.124Z,1015.29
2022-10-05T00:22:43.514Z,1015.29
2022-10-05T00:22:52.912Z,1015.27
2022-10-05T00:23:02.336Z,1015.30
2022-10-05T00:23:11.720Z,1015.26
2022-10-05T00:23:21.122Z,1015.27
2022-10-05T00:23:30.521Z,1015.23
2022-10-05T00:23:39.916Z,1015.18
2022-10-05T00:23:49.330Z,1015.25
2022-10-05T00:23:58.750Z,1015.20
2022-10-05T00:24:08.144Z,1015.18
2022-10-05T00:24:17.548Z,1015.22
2022-10-05T00:24:26.940Z,1015.26
2022-10-05T00:24:36.334Z,1015.17
2022-10-05T00:24:55.131Z,1015.25
2022-10-05T00:25:04.545Z,1015.23
2022-10-05T00:25:13.950Z,1015.23
2022-10-05T00:25:23.340Z,1015.21
2022-10-05T00:25:32.728Z,1015.22
2022-10-05T00:25:42.129Z,1015.18
2022-10-05T00:25:51.536Z,1015.26
2022-10-05T00:26:00.958Z,1015.27
2022-10-05T00:26:10.379Z,1015.26
2022-10-05T00:26:19.814Z,1015.18
2022-10-05T00:26:29.216Z,1015.19
2022-10-05T00:26:38.637Z,1015.19
2022-10-05T00:26:48.957Z,1015.24
2022-10-05T00:26:58.340Z,1015.15
2022-10-05T00:27:06.913Z,1015.23
2022-10-05T00:27:16.330Z,1015.14
2022-10-05T00:27:26.263Z,1015.17
2022-10-05T00:27:45.092Z,1015.17
2022-10-05T00:27:54.508Z,1015.11
2022-10-05T00:28:04.013Z,1015.20
2022-10-05T00:28:13.364Z,1015.13
2022-10-05T00:28:22.884Z,1015.23
2022-10-05T00:28:32.226Z,1015.17
2022-10-05T00:28:41.533Z,1015.19
2022-10-05T00:28:50.959Z,1015.21
2022-10-05T00:29:00.369Z,1015.19
2022-10-05T00:29:09.794Z,1015.19
2022-10-05T00:29:19.214Z,1015.16
2022-10-05T00:29:28.667Z,1015.21
2022-10-05T00:29:38.081Z,1015.21
2022-10-05T00:29:47.487Z,1015.23
2022-10-05T00:29:56.916Z,1015.29
2022-10-05T00:30:06.425Z,1015.27
2022-10-05T00:30:25.151Z,1015.27
2022-10-05T00:30:34.571Z,1015.30
2022-10-05T00:30:44.041Z,1015.29
2022-10-05T00:30:53.461Z,1015.27
2022-10-05T00:31:02.886Z,1015.22
2022-10-05T00:31:12.377Z,1015.31
2022-10-05T00:31:21.819Z,1015.23
2022-10-05T00:31:31.202Z,1015.25
2022-10-05T00:31:40.668Z,1015.27
2022-10-05T00:31:50.069Z,1015.28
2022-10-05T00:31:59.496Z,1015.26
2022-10-05T00:32:08.878Z,1015.26
2022-10-05T00:32:18.224Z,1015.23
2022-10-05T00:32:27.732Z,1015.29
2022-10-05T00:32:37.154Z,1015.32
2022-10-05T00:32:46.575Z,1015.34
2022-10-05T00:33:05.397Z,1015.28
2022-10-05T00:33:14.811Z,1015.28
2022-10-05T00:33:24.198Z,1015.23
2022-10-05T00:33:33.610Z,1015.21
2022-10-05T00:33:43.035Z,1015.23
2022-10-05T00:33:52.460Z,1015.29
2022-10-05T00:34:02.110Z,1015.29
2022-10-05T00:34:11.516Z,1015.24
2022-10-05T00:34:20.942Z,1015.24
2022-10-05T00:34:30.341Z,1015.18
2022-10-05T00:34:39.749Z,1015.26
2022-10-05T00:34:49.177Z,1015.21
2022-10-05T00:34:58.589Z,1015.26
2022-10-05T00:35:08.002Z,1015.26
2022-10-05T00:35:17.416Z,1015.30
2022-10-05T00:35:26.849Z,1015.28
2022-10-05T00:35:36.260Z,1015.22
2022-10-05T00:35:55.094Z,1015.23
2022-10-05T00:36:04.514Z,1015.22
2022-10-05T00:36:13.965Z,1015.25
2022-10-05T00:36:23.372Z,1015.26
2022-10-05T00:36:32.799Z,1015.26
2022-10-05T00:36:42.214Z,1015.25
2022-10-05T00:36:51.614Z,1015.27
2022-10-05T00:37:01.027Z,1015.26
2022-10-05T00:37:10.447Z,1015.28
2022-10-05T00:37:19.895Z,1015.24
2022-10-05T00:37:29.312Z,1015.31
2022-10-05T00:37:38.718Z,1015.28
2022-10-05T00:37:48.142Z,1015.31
2022-10-05T00:37:57.580Z,1015.27
2022-10-05T00:38:07.006Z,1015.27
2022-10-05T00:38:16.436Z,1015.22
2022-10-05T00:38:35.257Z,1015.34
2022-10-05T00:38:44.653Z,1015.37
2022-10-05T00:38:54.051Z,1015.29
2022-10-05T00:39:03.477Z,1015.24
2022-10-05T00:39:12.885Z,1015.23
2022-10-05T00:39:22.311Z,1015.24
2022-10-05T00:39:31.727Z,1015.31
2022-10-05T00:39:41.157Z,1015.27
2022-10-05T00:39:50.586Z,1015.32
2022-10-05T00:39:59.990Z,1015.24
2022-10-05T00:40:09.415Z,1015.17
2022-10-05T00:40:18.832Z,1015.27
2022-10-05T00:40:28.262Z,1015.23
2022-10-05T00:40:37.728Z,1015.24
2022-10-05T00:40:47.159Z,1015.24
2022-10-05T00:40:56.568Z,1015.21
2022-10-05T00:41:15.425Z,1015.21
2022-10-05T00:41:24.836Z,1015.24
2022-10-05T00:41:34.259Z,1015.15
2022-10-05T00:41:43.662Z,1015.21
2022-10-05T00:41:53.089Z,1015.19
2022-10-05T00:42:02.532Z,1015.15
2022-10-05T00:42:11.943Z,1015.22
2022-10-05T00:42:21.383Z,1015.21
2022-10-05T00:42:30.809Z,1015.15
2022-10-05T00:42:40.199Z,1015.17
2022-10-05T00:42:49.614Z,1015.19
2022-10-05T00:42:59.044Z,1015.20
2022-10-05T00:43:11.160Z,1015.21
2022-10-05T00:43:20.593Z,1015.16
2022-10-05T00:43:30.020Z,1015.23
2022-10-05T00:43:39.433Z,1015.15
2022-10-05T00:43:48.855Z,1015.18
2022-10-05T00:43:58.249Z,1015.19
2022-10-05T00:44:07.664Z,1015.21
2022-10-05T00:44:17.072Z,1015.10
2022-10-05T00:44:26.485Z,1015.21
2022-10-05T00:44:45.309Z,1015.18
2022-10-05T00:44:54.726Z,1015.15
2022-10-05T00:45:04.144Z,1015.25
2022-10-05T00:45:13.592Z,1015.24
2022-10-05T00:45:22.974Z,1015.22
2022-10-05T00:45:32.487Z,1015.21
2022-10-05T00:45:41.907Z,1015.19
2022-10-05T00:45:51.361Z,1015.25
2022-10-05T00:46:00.763Z,1015.22
2022-10-05T00:46:10.250Z,1015.20
2022-10-05T00:46:19.599Z,1015.24
2022-10-05T00:46:28.949Z,1015.16
2022-10-05T00:46:38.372Z,1015.22
2022-10-05T00:46:48.165Z,1015.23
2022-10-05T00:46:57.224Z,1015.23
2022-10-05T00:47:06.653Z,1015.17
2022-10-05T00:47:25.512Z,1015.17
2022-10-05T00:47:34.948Z,1015.19
2022-10-05T00:47:44.343Z,1015.14
2022-10-05T00:47:53.760Z,1015.17
2022-10-05T00:48:03.180Z,1015.10
2022-10-05T00:48:12.582Z,1015.16
2022-10-05T00:48:22.023Z,1015.15
2022-10-05T00:48:31.438Z,1015.13
2022-10-05T00:48:40.853Z,1015.12
2022-10-05T00:48:50.269Z,1015.09
2022-10-05T00:48:59.685Z,1015.10
2022-10-05T00:49:09.111Z,1015.14
2022-10-05T00:49:18.531Z,1015.09
2022-10-05T00:49:27.964Z,1015.08
2022-10-05T00:49:37.379Z,1015.05
2022-10-05T00:49:46.792Z,1015.08
2022-10-05T00:49:56.197Z,1015.08
2022-10-05T00:50:15.027Z,1015.07
2022-10-05T00:50:24.436Z,1015.04
2022-10-05T00:50:33.849Z,1015.07
2022-10-05T00:50:43.275Z,1015.07
2022-10-05T00:50:52.714Z,1015.08
2022-10-05T00:51:02.125Z,1015.08
2022-10-05T00:51:11.535Z,1015.04
2022-10-05T00:51:20.978Z,1015.07
2022-10-05T00:51:30.451Z,1015.05
2022-10-05T00:51:39.865Z,1015.00
2022-10-05T00:51:49.267Z,1015.08
2022-10-05T00:51:58.678Z,1015.10
2022-10-05T00:52:08.102Z,1015.02
2022-10-05T00:52:17.515Z,1015.02
2022-10-05T00:52:26.957Z,1015.04
2022-10-05T00:52:36.387Z,1015.02
2022-10-05T00:52:55.227Z,1015.03
2022-10-05T00:53:04.657Z,1015.07
2022-10-05T00:53:14.083Z,1014.97
2022-10-05T00:53:23.479Z,1015.00
2022-10-05T00:53:32.899Z,1015.06
2022-10-05T00:53:42.303Z,1015.01
2022-10-05T00:53:51.709Z,1015.05
2022-10-05T00:54:01.112Z,1015.04
2022-10-05T00:54:13.641Z,1014.97
2022-10-05T00:54:19.921Z,1014.99
2022-10-05T00:54:29.334Z,1015.03
2022-10-05T00:54:38.746Z,1015.05
2022-10-05T00:54:48.158Z,1015.05
2022-10-05T00:54:57.565Z,1015.06
2022-10-05T00:55:06.958Z,1014.97
2022-10-05T00:55:16.377Z,1014.98
2022-10-05T00:55:35.217Z,1014.99
2022-10-05T00:55:44.645Z,1014.96
2022-10-05T00:55:54.060Z,1014.99
2022-10-05T00:56:03.451Z,1014.95
2022-10-05T00:56:12.853Z,1014.95
2022-10-05T00:56:22.216Z,1015.03
2022-10-05T00:56:31.648Z,1014.98
2022-10-05T00:56:41.046Z,1014.96
2022-10-05T00:56:50.438Z,1014.93
2022-10-05T00:56:59.820Z,1015.00
2022-10-05T00:57:09.206Z,1014.95
2022-10-05T00:57:18.651Z,1014.92
2022-10-05T00:57:28.063Z,1014.88
2022-10-05T00:57:37.505Z,1014.99
2022-10-05T00:57:46.902Z,1014.99
2022-10-05T00:57:56.325Z,1014.92
2022-10-05T00:58:15.168Z,1014.91
2022-10-05T00:58:24.585Z,1014.86
2022-10-05T00:58:33.970Z,1014.88
2022-10-05T00:58:43.358Z,1014.96
2022-10-05T00:58:52.749Z,1014.96
2022-10-05T00:59:02.157Z,1014.89
2022-10-05T00:59:11.567Z,1014.85
2022-10-05T00:59:20.992Z,1014.95
2022-10-05T00:59:30.395Z,1014.95
2022-10-05T00:59:39.811Z,1014.87
2022-10-05T00:59:49.209Z,1014.92
2022-10-05T00:59:58.648Z,1014.95
2022-10-05T01:00:08.066Z,1014.98
2022-10-05T01:00:17.508Z,1014.93
2022-10-05T01:00:26.893Z,1014.94
2022-10-05T01:00:36.292Z,1014.98
2022-10-05T01:00:55.109Z,1014.97
2022-10-05T01:01:04.567Z,1014.97
2022-10-05T01:01:14.037Z,1014.98
2022-10-05T01:01:23.382Z,1014.99
2022-10-05T01:01:32.817Z,1015.03
2022-10-05T01:01:42.124Z,1014.97
2022-10-05T01:01:51.604Z,1015.02
2022-10-05T01:02:01.036Z,1014.99
2022-10-05T01:02:10.380Z,1014.97
2022-10-05T01:02:19.868Z,1014.96
2022-10-05T01:02:33.013Z,1014.97
2022-10-05T01:02:38.609Z,1015.00
2022-10-05T01:02:48.041Z,1014.97
2022-10-05T01:02:57.384Z,1015.04
2022-10-05T01:03:06.813Z,1015.02
2022-10-05T01:03:16.227Z,1015.00
2022-10-05T01:03:35.022Z,1015.02
2022-10-05T01:03:44.445Z,1015.08
2022-10-05T01:03:53.855Z,1014.98
2022-10-05T01:04:03.267Z,1014.95
2022-10-05T01:04:12.679Z,1014.97
2022-10-05T01:04:22.088Z,1014.94
2022-10-05T01:04:31.475Z,1014.98
2022-10-05T01:04:40.878Z,1015.02
2022-10-05T01:04:50.295Z,1014.97
2022-10-05T01:04:59.709Z,1014.96
2022-10-05T01:05:09.113Z,1014.89
2022-10-05T01:05:18.535Z,1014.98
2022-10-05T01:05:27.939Z,1014.90
2022-10-05T01:05:37.332Z,1014.95
2022-10-05T01:05:46.751Z,1014.94
2022-10-05T01:05:56.173Z,1014.94
2022-10-05T01:06:15.020Z,1014.94
2022-10-05T01:06:24.439Z,1014.98
2022-10-05T01:06:33.830Z,1014.86
2022-10-05T01:06:43.553Z,1014.96
2022-10-05T01:06:52.643Z,1014.90
2022-10-05T01:07:02.036Z,1014.89
2022-10-05T01:07:11.439Z,1014.88
2022-10-05T01:07:20.887Z,1014.89
2022-10-05T01:07:30.280Z,1014.81
2022-10-05T01:07:39.689Z,1014.80
2022-10-05T01:07:49.075Z,1014.85
2022-10-05T01:07:58.487Z,1014.83
2022-10-05T01:08:07.903Z,1014.80
2022-10-05T01:08:17.316Z,1014.83
2022-10-05T01:08:26.731Z,1014.82
2022-10-05T01:08:36.131Z,1014.81
2022-10-05T01:08:54.953Z,1014.76
2022-10-05T01:09:04.345Z,1014.78
2022-10-05T01:09:13.749Z,1014.82
2022-10-05T01:09:23.158Z,1014.79
2022-10-05T01:09:32.563Z,1014.79
2022-10-05T01:09:41.997Z,1014.80
2022-10-05T01:09:51.429Z,1014.81
2022-10-05T01:10:00.868Z,1014.73
2022-10-05T01:10:10.276Z,1014.81
2022-10-05T01:10:19.700Z,1014.85
2022-10-05T01:10:29.101Z,1014.68
2022-10-05T01:10:38.514Z,1014.77
2022-10-05T01:10:47.915Z,1014.78
2022-10-05T01:10:57.312Z,1014.79
2022-10-05T01:11:06.730Z,1014.78
2022-10-05T01:11:16.138Z,1014.75
2022-10-05T01:11:34.921Z,1014.80
2022-10-05T01:11:44.313Z,1014.82
2022-10-05T01:11:53.789Z,1014.76
2022-10-05T01:12:03.183Z,1014.78
2022-10-05T01:12:12.584Z,1014.78
2022-10-05T01:12:22.022Z,1014.82
2022-10-05T01:12:31.442Z,1014.86
2022-10-05T01:12:40.878Z,1014.81
2022-10-05T01:12:50.295Z,1014.77
2022-10-05T01:12:59.707Z,1014.78
2022-10-05T01:13:09.113Z,1014.87
2022-10-05T01:13:18.537Z,1014.80
2022-10-05T01:13:27.960Z,1014.81
2022-10-05T01:13:37.392Z,1014.81
2022-10-05T01:13:46.792Z,1014.84
2022-10-05T01:13:56.201Z,1014.85
2022-10-05T01:14:15.045Z,1014.82
2022-10-05T01:14:24.447Z,1014.84
2022-10-05T01:14:33.841Z,1014.81
2022-10-05T01:14:43.250Z,1014.86
2022-10-05T01:14:52.656Z,1014.84
2022-10-05T01:15:02.078Z,1014.90
2022-10-05T01:15:11.494Z,1014.90
2022-10-05T01:15:20.927Z,1014.88
2022-10-05T01:15:30.337Z,1014.83
2022-10-05T01:15:39.746Z,1014.83
2022-10-05T01:15:49.151Z,1014.84
2022-10-05T01:15:58.561Z,1014.85
2022-10-05T01:16:08.017Z,1014.91
2022-10-05T01:16:17.463Z,1014.91
2022-10-05T01:16:26.898Z,1014.86
2022-10-05T01:16:36.293Z,1014.84
2022-10-05T01:16:55.064Z,1014.85
2022-10-05T01:17:04.443Z,1014.83
2022-10-05T01:17:13.839Z,1014.85
2022-10-05T01:17:23.269Z,1014.85
2022-10-05T01:17:32.657Z,1014.89
2022-10-05T01:17:42.061Z,1014.85
2022-10-05T01:17:51.506Z,1014.88
2022-10-05T01:18:00.921Z,1014.78
2022-10-05T01:18:10.329Z,1014.90
2022-10-05T01:18:19.891Z,1014.85
2022-10-05T01:18:29.294Z,1014.85
2022-10-05T01:18:38.723Z,1014.83
2022-10-05T01:18:48.128Z,1014.86
2022-10-05T01:18:57.529Z,1014.87
2022-10-05T01:19:06.930Z,1014.84
2022-10-05T01:19:16.363Z,1014.86
2022-10-05T01:19:35.179Z,1014.80
2022-10-05T01:19:44.597Z,1014.87
2022-10-05T01:19:54.019Z,1014.87
2022-10-05T01:20:03.425Z,1014.89
2022-10-05T01:20:12.873Z,1014.78
2022-10-05T01:20:22.254Z,1014.75
2022-10-05T01:20:31.657Z,1014.83
2022-10-05T01:20:41.052Z,1014.84
2022-10-05T01:20:50.442Z,1014.84
2022-10-05T01:20:59.834Z,1014.84
2022-10-05T01:21:09.225Z,1014.85
2022-10-05T01:21:18.633Z,1014.83
2022-10-05T01:21:28.013Z,1014.79
2022-10-05T01:21:37.418Z,1014.89
2022-10-05T01:21:46.836Z,1014.89
2022-10-05T01:21:56.279Z,1014.83
2022-10-05T01:22:15.083Z,1014.89
2022-10-05T01:22:24.507Z,1014.87
2022-10-05T01:22:33.927Z,1014.91
2022-10-05T01:22:43.319Z,1014.86
2022-10-05T01:22:52.715Z,1014.89
2022-10-05T01:23:02.122Z,1014.78
2022-10-05T01:23:11.525Z,1014.85
2022-10-05T01:23:20.924Z,1014.80
2022-10-05T01:23:30.325Z,1014.82
2022-10-05T01:23:39.742Z,1014.81
2022-10-05T01:23:49.141Z,1014.88
2022-10-05T01:23:58.551Z,1014.86
2022-10-05T01:24:07.963Z,1014.83
2022-10-05T01:24:17.383Z,1014.79
2022-10-05T01:24:26.806Z,1014.88
2022-10-05T01:24:36.203Z,1014.86
2022-10-05T01:24:55.055Z,1014.84
2022-10-05T01:25:04.477Z,1014.81
2022-10-05T01:25:13.896Z,1014.87
2022-10-05T01:25:23.299Z,1014.84
2022-10-05T01:25:32.704Z,1014.83
2022-10-05T01:25:42.099Z,1014.84
2022-10-05T01:25:51.515Z,1014.81
2022-10-05T01:26:00.923Z,1014.80
2022-10-05T01:26:10.378Z,1014.79
2022-10-05T01:26:19.778Z,1014.77
2022-10-05T01:26:29.186Z,1014.81
2022-10-05T01:26:38.586Z,1014.86
2022-10-05T01:26:48.355Z,1014.78
2022-10-05T01:26:57.400Z,1014.76
2022-10-05T01:27:06.796Z,1014.75
2022-10-05T01:27:16.192Z,1014.75
2022-10-05T01:27:35.063Z,1014.77
2022-10-05T01:27:44.464Z,1014.77
2022-10-05T01:27:53.919Z,1014.77
2022-10-05T01:28:03.372Z,1014.80
2022-10-05T01:28:12.786Z,1014.74
2022-10-05T01:28:22.261Z,1014.74
2022-10-05T01:28:31.686Z,1014.78
2022-10-05T01:28:41.046Z,1014.80
2022-10-05T01:28:50.465Z,1014.72
2022-10-05T01:28:59.872Z,1014.74
2022-10-05T01:29:09.284Z,1014.74
2022-10-05T01:29:18.671Z,1014.79
2022-10-05T01:29:28.077Z,1014.79
2022-10-05T01:29:37.466Z,1014.70
2022-10-05T01:29:46.904Z,1014.75
2022-10-05T01:29:56.295Z,1014.76
2022-10-05T01:30:15.136Z,1014.77
2022-10-05T01:30:24.565Z,1014.75
2022-10-05T01:30:33.970Z,1014.81
2022-10-05T01:30:43.379Z,1014.72
2022-10-05T01:30:52.785Z,1014.80
2022-10-05T01:31:02.188Z,1014.78
2022-10-05T01:31:11.609Z,1014.78
2022-10-05T01:31:21.042Z,1014.71
2022-10-05T01:31:30.424Z,1014.75
2022-10-05T01:31:42.305Z,1014.74
2022-10-05T01:31:51.739Z,1014.79
2022-10-05T01:32:01.047Z,1014.74
2022-10-05T01:32:10.446Z,1014.72
2022-10-05T01:32:19.857Z,1014.75
2022-10-05T01:32:29.284Z,1014.70
2022-10-05T01:32:38.688Z,1014.79
2022-10-05T01:32:48.069Z,1014.72
2022-10-05T01:32:57.489Z,1014.74
2022-10-05T01:33:06.921Z,1014.76
2022-10-05T01:33:16.342Z,1014.72
2022-10-05T01:33:35.186Z,1014.71
2022-10-05T01:33:44.594Z,1014.78
2022-10-05T01:33:53.998Z,1014.79
2022-10-05T01:34:06.701Z,1014.84
2022-10-05T01:34:12.796Z,1014.86
2022-10-05T01:34:22.187Z,1014.77
2022-10-05T01:34:31.583Z,1014.78
2022-10-05T01:34:40.965Z,1014.80
2022-10-05T01:34:50.380Z,1014.78
2022-10-05T01:34:59.771Z,1014.79
2022-10-05T01:35:09.184Z,1014.87
2022-10-05T01:35:18.586Z,1014.84
2022-10-05T01:35:27.996Z,1014.79
2022-10-05T01:35:37.409Z,1014.87
2022-10-05T01:35:46.817Z,1014.90
2022-10-05T01:35:56.224Z,1014.84
2022-10-05T01:36:15.058Z,1014.83
2022-10-05T01:36:24.483Z,1014.83
2022-10-05T01:36:33.906Z,1014.89
2022-10-05T01:36:43.526Z,1014.92
2022-10-05T01:36:52.712Z,1014.88
2022-10-05T01:37:02.097Z,1014.86
2022-10-05T01:37:11.510Z,1014.95
2022-10-05T01:37:20.918Z,1014.96
2022-10-05T01:37:30.376Z,1014.92
2022-10-05T01:37:39.776Z,1014.85
2022-10-05T01:37:49.177Z,1014.93
2022-10-05T01:37:58.580Z,1014.90
2022-10-05T01:38:07.982Z,1014.86
2022-10-05T01:38:17.397Z,1014.82
2022-10-05T01:38:26.795Z,1014.91
2022-10-05T01:38:36.205Z,1014.90
2022-10-05T01:38:55.025Z,1014.88
2022-10-05T01:39:04.428Z,1014.93
2022-10-05T01:39:13.830Z,1014.94
2022-10-05T01:39:23.229Z,1014.94
2022-10-05T01:39:32.655Z,1014.98
2022-10-05T01:39:42.085Z,1014.92
2022-10-05T01:39:51.496Z,1014.94
2022-10-05T01:40:00.918Z,1014.95
2022-10-05T01:40:10.340Z,1014.91
2022-10-05T01:40:19.771Z,1014.93
2022-10-05T01:40:29.186Z,1014.96
2022-10-05T01:40:38.604Z,1014.99
2022-10-05T01:40:48.029Z,1014.99
2022-10-05T01:40:57.453Z,1015.00
2022-10-05T01:41:06.866Z,1015.02
2022-10-05T01:41:16.307Z,1014.96
2022-10-05T01:41:35.130Z,1014.89
2022-10-05T01:41:44.551Z,1015.03
2022-10-05T01:41:53.971Z,1014.99
2022-10-05T01:42:03.372Z,1014.95
2022-10-05T01:42:12.785Z,1015.00
2022-10-05T01:42:22.182Z,1015.01
2022-10-05T01:42:35.932Z,1014.99
2022-10-05T01:42:45.350Z,1014.96
2022-10-05T01:42:54.772Z,1015.00
2022-10-05T01:43:04.183Z,1014.96
2022-10-05T01:43:13.657Z,1014.97
2022-10-05T01:43:23.069Z,1014.96
2022-10-05T01:43:32.497Z,1014.98
2022-10-05T01:43:41.902Z,1014.95
2022-10-05T01:43:51.332Z,1014.88
2022-10-05T01:44:00.745Z,1014.92
2022-10-05T01:44:10.161Z,1015.01
2022-10-05T01:44:19.554Z,1015.03
2022-10-05T01:44:28.967Z,1015.00
2022-10-05T01:44:38.396Z,1014.95
2022-10-05T01:44:47.851Z,1015.01
2022-10-05T01:44:57.259Z,1014.92
2022-10-05T01:45:06.661Z,1014.96
2022-10-05T01:45:25.477Z,1014.98
2022-10-05T01:45:35.114Z,1014.98
2022-10-05T01:45:44.362Z,1015.00
2022-10-05T01:45:53.790Z,1015.01
2022-10-05T01:46:03.230Z,1015.00
2022-10-05T01:46:12.609Z,1014.98
2022-10-05T01:46:22.081Z,1015.02
2022-10-05T01:46:31.419Z,1015.04
2022-10-05T01:46:40.832Z,1015.01
2022-10-05T01:46:50.270Z,1014.97
2022-10-05T01:46:59.680Z,1014.97
2022-10-05T01:47:09.082Z,1014.94
2022-10-05T01:47:18.517Z,1014.93
2022-10-05T01:47:27.937Z,1014.96
2022-10-05T01:47:37.363Z,1014.94
2022-10-05T01:47:46.790Z,1014.89
2022-10-05T01:47:56.199Z,1014.94
2022-10-05T01:48:15.050Z,1014.90
2022-10-05T01:48:24.445Z,1014.89
2022-10-05T01:48:33.875Z,1014.87
2022-10-05T01:48:43.284Z,1014.85
2022-10-05T01:48:52.687Z,1014.87
2022-10-05T01:49:02.089Z,1014.88
2022-10-05T01:49:11.508Z,1014.75
2022-10-05T01:49:20.929Z,1014.83
2022-10-05T01:49:30.317Z,1014.85
2022-10-05T01:49:39.731Z,1014.88
2022-10-05T01:49:49.151Z,1014.87
2022-10-05T01:49:58.543Z,1014.85
2022-10-05T01:50:07.955Z,1014.87
2022-10-05T01:50:17.375Z,1014.81
2022-10-05T01:50:26.793Z,1014.83
2022-10-05T01:50:36.219Z,1014.85
2022-10-05T01:50:55.053Z,1014.81
2022-10-05T01:51:04.453Z,1014.83
2022-10-05T01:51:13.874Z,1014.85
2022-10-05T01:51:23.283Z,1014.86
2022-10-05T01:51:32.766Z,1014.78
2022-10-05T01:51:42.170Z,1014.80
2022-10-05T01:51:51.583Z,1014.75
2022-10-05T01:52:01.008Z,1014.78
2022-10-05T01:52:10.426Z,1014.79
2022-10-05T01:52:19.844Z,1014.77
2022-10-05T01:52:29.259Z,1014.77
2022-10-05T01:52:38.701Z,1014.78
2022-10-05T01:52:48.110Z,1014.79
2022-10-05T01:52:57.529Z,1014.85
2022-10-05T01:53:06.944Z,1014.80
2022-10-05T01:53:16.374Z,1014.76
2022-10-05T01:53:35.207Z,1014.77
2022-10-05T01:53:44.663Z,1014.78
2022-10-05T01:53:54.073Z,1014.79
2022-10-05T01:54:03.517Z,1014.81
2022-10-05T01:54:12.950Z,1014.84
2022-10-05T01:54:22.355Z,1014.75
2022-10-05T01:54:31.755Z,1014.84
2022-10-05T01:54:41.164Z,1014.89
2022-10-05T01:54:50.580Z,1014.81
2022-10-05T01:55:00.033Z,1014.93
2022-10-05T01:55:09.460Z,1014.82
2022-10-05T01:55:18.880Z,1014.85
2022-10-05T01:55:28.298Z,1014.80
2022-10-05T01:55:37.717Z,1014.81
2022-10-05T01:55:47.139Z,1014.90
2022-10-05T01:55:56.564Z,1014.83
2022-10-05T01:56:15.412Z,1014.91
2022-10-05T01:56:24.824Z,1014.90
2022-10-05T01:56:34.221Z,1014.89
2022-10-05T01:56:44.050Z,1014.83
2022-10-05T01:56:53.042Z,1014.87
2022-10-05T01:57:02.468Z,1014.87
2022-10-05T01:57:11.888Z,1014.84
2022-10-05T01:57:21.348Z,1014.85
2022-10-05T01:57:30.774Z,1014.90
2022-10-05T01:57:40.222Z,1014.82
2022-10-05T01:57:49.639Z,1014.86
2022-10-05T01:57:59.048Z,1014.82
2022-10-05T01:58:08.454Z,1014.83
2022-10-05T01:58:17.877Z,1014.88
2022-10-05T01:58:27.289Z,1014.78
2022-10-05T01:58:36.690Z,1014.83
2022-10-05T01:58:55.505Z,1014.82
2022-10-05T01:59:04.907Z,1014.84
2022-10-05T01:59:14.307Z,1014.83
2022-10-05T01:59:23.720Z,1014.85
2022-10-05T01:59:33.123Z,1014.92
2022-10-05T01:59:42.506Z,1014.87
2022-10-05T01:59:51.905Z,1014.81
2022-10-05T02:00:01.329Z,1014.81
2022-10-05T02:00:10.743Z,1014.91
2022-10-05T02:00:20.134Z,1014.87
2022-10-05T02:00:29.533Z,1014.93
2022-10-05T02:00:38.980Z,1014.86
2022-10-05T02:00:48.473Z,1014.84